createdAt,value
2022-12-06T00:00:10.279Z,82.38
2022-12-06T00:03:04.642Z,82.70
2022-12-06T00:05:40.663Z,82.78
2022-12-06T00:08:15.349Z,82.73
2022-12-06T00:10:47.270Z,82.88
2022-12-06T00:13:19.233Z,82.78
2022-12-06T00:15:51.247Z,82.93
2022-12-06T00:18:23.108Z,82.68
2022-12-06T00:20:54.994Z,82.32
2022-12-06T00:23:31.493Z,82.01
2022-12-06T00:26:04.653Z,82.11
2022-12-06T00:28:38.179Z,82.45
2022-12-06T00:31:13.524Z,82.24
2022-12-06T00:33:46.305Z,82.46
2022-12-06T00:36:21.265Z,82.45
2022-12-06T00:38:52.358Z,82.78
2022-12-06T00:41:26.061Z,82.91
2022-12-06T00:43:58.613Z,83.02
2022-12-06T00:46:32.660Z,83.17
2022-12-06T00:49:06.079Z,83.15
2022-12-06T00:51:39.122Z,83.18
2022-12-06T00:54:15.205Z,83.21
2022-12-06T00:56:47.135Z,82.89
2022-12-06T00:59:19.175Z,82.66
2022-12-06T01:01:51.188Z,82.84
2022-12-06T01:04:23.204Z,83.01
2022-12-06T01:06:55.269Z,83.21
2022-12-06T01:09:29.255Z,82.75
2022-12-06T01:12:01.400Z,83.28
2022-12-06T01:14:33.361Z,83.31
2022-12-06T01:17:05.260Z,83.55
2022-12-06T01:19:37.161Z,83.44
2022-12-06T01:22:09.124Z,83.57
2022-12-06T01:24:41.266Z,83.50
2022-12-06T01:27:13.253Z,82.96
2022-12-06T01:29:45.141Z,82.88
2022-12-06T01:32:17.081Z,82.96
2022-12-06T01:34:52.321Z,82.94
2022-12-06T01:37:24.513Z,82.92
2022-12-06T01:39:56.629Z,83.14
2022-12-06T01:42:28.582Z,83.39
2022-12-06T01:45:01.959Z,83.46
2022-12-06T01:47:37.104Z,83.56
2022-12-06T01:50:14.631Z,83.47
2022-12-06T01:52:54.061Z,83.52
2022-12-06T01:55:30.171Z,83.57
2022-12-06T01:58:05.823Z,83.49
2022-12-06T02:00:38.092Z,83.13
2022-12-06T02:03:17.506Z,83.10
2022-12-06T02:05:49.597Z,83.06
2022-12-06T02:08:22.837Z,83.20
2022-12-06T02:10:55.392Z,83.00
2022-12-06T02:13:28.047Z,83.20
2022-12-06T02:16:10.456Z,83.19
2022-12-06T02:18:48.434Z,83.43
2022-12-06T02:21:29.239Z,83.62
2022-12-06T02:24:42.718Z,83.79
2022-12-06T02:27:39.317Z,83.92
2022-12-06T02:30:18.755Z,83.88
2022-12-06T02:32:58.495Z,83.68
2022-12-06T02:35:36.575Z,83.73
2022-12-06T02:38:14.401Z,83.15
2022-12-06T02:40:51.742Z,83.13
2022-12-06T02:43:27.472Z,83.06
2022-12-06T02:46:04.185Z,83.27
2022-12-06T02:48:37.102Z,83.09
2022-12-06T02:51:14.517Z,83.61
2022-12-06T02:53:51.294Z,83.56
2022-12-06T02:56:24.359Z,83.71
2022-12-06T02:58:57.329Z,83.86
2022-12-06T03:01:32.580Z,83.79
2022-12-06T03:04:31.610Z,83.81
2022-12-06T03:07:13.614Z,83.83
2022-12-06T03:09:59.989Z,84.20
2022-12-06T03:12:40.605Z,83.92
2022-12-06T03:15:17.129Z,83.13
2022-12-06T03:17:54.180Z,83.33
2022-12-06T03:20:29.856Z,83.39
2022-12-06T03:23:06.888Z,83.30
2022-12-06T03:25:40.211Z,83.43
2022-12-06T03:28:15.604Z,83.28
2022-12-06T03:30:51.234Z,83.69
2022-12-06T03:33:27.131Z,83.56
2022-12-06T03:36:01.300Z,83.89
2022-12-06T03:38:38.123Z,84.06
2022-12-06T03:41:10.936Z,84.07
2022-12-06T03:43:42.889Z,84.33
2022-12-06T03:46:18.157Z,84.27
2022-12-06T03:48:54.503Z,83.85
2022-12-06T03:51:29.667Z,83.92
2022-12-06T03:54:04.606Z,83.60
2022-12-06T03:56:37.043Z,83.45
2022-12-06T03:59:10.730Z,83.75
2022-12-06T04:01:42.737Z,84.07
2022-12-06T04:04:15.245Z,83.96
2022-12-06T04:06:47.183Z,84.09
2022-12-06T04:09:37.269Z,84.45
2022-12-06T04:12:29.970Z,84.59
2022-12-06T04:15:01.888Z,84.39
2022-12-06T04:17:50.765Z,84.60
2022-12-06T04:20:22.761Z,84.81
2022-12-06T04:23:07.110Z,84.39
2022-12-06T04:25:39.405Z,84.15
2022-12-06T04:28:29.058Z,83.78
2022-12-06T04:31:22.316Z,83.70
2022-12-06T04:34:12.488Z,83.56
2022-12-06T04:37:02.449Z,83.92
2022-12-06T04:39:34.976Z,84.09
2022-12-06T04:42:25.447Z,84.61
2022-12-06T04:44:57.589Z,84.55
2022-12-06T04:47:29.554Z,84.83
2022-12-06T04:50:01.685Z,84.77
2022-12-06T04:52:35.958Z,85.00
2022-12-06T04:55:09.438Z,84.86
2022-12-06T04:57:41.348Z,84.93
2022-12-06T05:00:15.238Z,84.29
2022-12-06T05:02:47.172Z,84.31
2022-12-06T05:05:19.440Z,84.51
2022-12-06T05:07:51.735Z,84.46
2022-12-06T05:10:23.983Z,84.39
2022-12-06T05:12:55.946Z,84.37
2022-12-06T05:15:29.313Z,84.37
2022-12-06T05:18:01.977Z,84.79
2022-12-06T05:20:33.889Z,85.06
2022-12-06T05:23:06.364Z,84.92
2022-12-06T05:25:38.553Z,85.16
2022-12-06T05:28:11.338Z,84.90
2022-12-06T05:30:43.198Z,84.93
2022-12-06T05:33:15.127Z,84.97
2022-12-06T05:35:47.070Z,84.64
2022-12-06T05:38:19.324Z,84.32
2022-12-06T05:40:51.410Z,84.41
2022-12-06T05:43:23.319Z,84.44
2022-12-06T05:45:56.537Z,84.61
2022-12-06T05:48:28.681Z,84.78
2022-12-06T05:51:01.156Z,84.85
2022-12-06T05:53:33.476Z,84.86
2022-12-06T05:56:11.586Z,85.05
2022-12-06T05:58:43.574Z,85.13
2022-12-06T06:01:15.665Z,85.09
2022-12-06T06:03:48.170Z,85.15
2022-12-06T06:06:21.410Z,85.21
2022-12-06T06:08:53.491Z,84.72
2022-12-06T06:11:25.518Z,84.62
2022-12-06T06:13:57.760Z,84.54
2022-12-06T06:16:29.703Z,84.76
2022-12-06T06:19:01.865Z,84.91
2022-12-06T06:21:33.858Z,84.84
2022-12-06T06:24:06.469Z,85.02
2022-12-06T06:26:38.448Z,84.91
2022-12-06T06:29:10.539Z,85.20
2022-12-06T06:31:42.427Z,85.23
2022-12-06T06:34:14.390Z,85.65
2022-12-06T06:36:46.354Z,85.47
2022-12-06T06:39:18.497Z,85.88
2022-12-06T06:41:50.408Z,85.66
2022-12-06T06:44:22.371Z,85.40
2022-12-06T06:46:54.334Z,84.94
2022-12-06T06:49:26.272Z,85.01
2022-12-06T06:51:58.467Z,84.94
2022-12-06T06:54:30.404Z,85.13
2022-12-06T06:57:03.182Z,85.20
2022-12-06T06:59:35.255Z,85.03
2022-12-06T07:02:07.245Z,85.45
2022-12-06T07:04:39.564Z,85.25
2022-12-06T07:07:14.328Z,85.61
2022-12-06T07:09:51.938Z,85.68
2022-12-06T07:12:23.799Z,85.94
2022-12-06T07:14:55.788Z,85.84
2022-12-06T07:17:27.725Z,85.66
2022-12-06T07:19:59.906Z,85.18
2022-12-06T07:22:32.575Z,85.20
2022-12-06T07:25:04.822Z,85.22
2022-12-06T07:27:37.628Z,85.22
2022-12-06T07:30:16.750Z,85.40
2022-12-06T07:32:49.007Z,85.52
2022-12-06T07:35:21.760Z,85.57
2022-12-06T07:37:53.801Z,85.83
2022-12-06T07:40:48.272Z,85.86
2022-12-06T07:43:35.031Z,86.18
2022-12-06T07:46:12.928Z,86.07
2022-12-06T07:48:44.923Z,86.06
2022-12-06T07:51:16.933Z,86.06
2022-12-06T07:53:48.871Z,85.76
2022-12-06T07:56:20.912Z,85.52
2022-12-06T07:58:53.029Z,85.47
2022-12-06T08:01:25.103Z,85.63
2022-12-06T08:03:57.336Z,85.70
2022-12-06T08:06:29.640Z,85.58
2022-12-06T08:09:01.600Z,85.70
2022-12-06T08:11:33.843Z,86.11
2022-12-06T08:14:06.166Z,86.24
2022-12-06T08:16:38.104Z,86.58
2022-12-06T08:19:10.553Z,86.38
2022-12-06T08:21:42.439Z,86.39
2022-12-06T08:24:15.146Z,86.39
2022-12-06T08:26:47.673Z,86.12
2022-12-06T08:29:19.869Z,85.89
2022-12-06T08:31:51.958Z,85.99
2022-12-06T08:34:24.355Z,85.94
2022-12-06T08:37:00.322Z,86.18
2022-12-06T08:39:35.578Z,86.33
2022-12-06T08:42:08.258Z,86.02
2022-12-06T08:44:40.121Z,86.26
2022-12-06T08:47:13.595Z,86.69
2022-12-06T08:49:45.507Z,86.40
2022-12-06T08:52:17.910Z,86.42
2022-12-06T08:54:49.917Z,86.70
2022-12-06T08:57:22.318Z,86.46
2022-12-06T08:59:55.672Z,86.44
2022-12-06T09:02:27.730Z,86.21
2022-12-06T09:05:00.335Z,85.92
2022-12-06T09:07:32.428Z,86.13
2022-12-06T09:10:05.675Z,85.98
2022-12-06T09:12:37.716Z,85.99
2022-12-06T09:15:11.554Z,86.06
2022-12-06T09:17:43.504Z,86.23
2022-12-06T09:20:18.335Z,86.57
2022-12-06T09:22:50.834Z,86.58
2022-12-06T09:25:22.992Z,86.83
2022-12-06T09:27:55.585Z,86.83
2022-12-06T09:30:27.570Z,86.61
2022-12-06T09:32:59.508Z,86.53
2022-12-06T09:35:31.599Z,86.04
2022-12-06T09:38:04.768Z,86.06
2022-12-06T09:40:45.816Z,86.35
2022-12-06T09:43:35.598Z,86.24
2022-12-06T09:46:27.704Z,86.12
2022-12-06T09:49:21.796Z,85.92
2022-12-06T09:52:11.503Z,86.01
2022-12-06T09:55:00.283Z,86.55
2022-12-06T09:57:39.435Z,86.77
2022-12-06T10:00:22.106Z,86.52
2022-12-06T10:03:32.109Z,86.93
2022-12-06T10:06:06.787Z,86.77
2022-12-06T10:09:03.042Z,86.86
2022-12-06T10:11:53.513Z,86.20
2022-12-06T10:14:40.861Z,86.27
2022-12-06T10:17:24.065Z,85.97
2022-12-06T10:20:04.782Z,86.34
2022-12-06T10:22:52.133Z,86.18
2022-12-06T10:25:31.449Z,86.29
2022-12-06T10:28:12.494Z,86.79
2022-12-06T10:30:51.803Z,87.04
2022-12-06T10:33:34.597Z,87.06
2022-12-06T10:36:11.322Z,87.18
2022-12-06T10:38:47.818Z,87.26
2022-12-06T10:41:24.794Z,87.25
2022-12-06T10:44:00.421Z,86.35
2022-12-06T10:46:56.365Z,86.39
2022-12-06T10:49:36.835Z,86.53
2022-12-06T10:52:21.477Z,86.48
2022-12-06T10:55:04.008Z,86.59
2022-12-06T10:57:44.524Z,86.67
2022-12-06T11:00:21.477Z,86.97
2022-12-06T11:03:01.811Z,87.03
2022-12-06T11:05:39.253Z,87.26
2022-12-06T11:08:17.637Z,87.34
2022-12-06T11:10:51.730Z,87.16
2022-12-06T11:13:30.630Z,87.24
2022-12-06T11:16:08.128Z,87.13
2022-12-06T11:18:41.189Z,86.61
2022-12-06T11:21:25.465Z,86.66
2022-12-06T11:24:02.423Z,86.38
2022-12-06T11:26:42.987Z,86.57
2022-12-06T11:29:17.049Z,86.80
2022-12-06T11:31:51.943Z,86.70
2022-12-06T11:34:30.575Z,86.96
2022-12-06T11:37:04.127Z,87.09
2022-12-06T11:39:36.836Z,87.54
2022-12-06T11:42:12.842Z,87.59
2022-12-06T11:45:01.259Z,87.74
2022-12-06T11:47:34.151Z,87.35
2022-12-06T11:50:17.147Z,87.23
2022-12-06T11:52:54.154Z,86.83
2022-12-06T11:55:30.009Z,86.74
2022-12-06T11:58:07.758Z,86.68
2022-12-06T12:00:56.260Z,86.53
2022-12-06T12:03:33.146Z,86.49
2022-12-06T12:06:18.301Z,87.00
2022-12-06T12:09:06.086Z,87.12
2022-12-06T12:11:42.207Z,87.33
2022-12-06T12:14:25.177Z,87.57
2022-12-06T12:17:02.369Z,87.52
2022-12-06T12:19:40.269Z,87.69
2022-12-06T12:22:26.846Z,87.85
2022-12-06T12:25:18.548Z,87.62
2022-12-06T12:27:53.199Z,87.22
2022-12-06T12:30:36.427Z,87.23
2022-12-06T12:33:18.670Z,86.81
2022-12-06T12:35:54.357Z,87.11
2022-12-06T12:38:39.684Z,87.09
2022-12-06T12:41:26.087Z,87.26
2022-12-06T12:44:29.011Z,87.15
2022-12-06T12:46:58.791Z,87.63
2022-12-06T12:49:36.202Z,87.63
2022-12-06T12:52:28.518Z,87.87
2022-12-06T12:55:15.801Z,87.78
2022-12-06T12:57:50.187Z,87.91
2022-12-06T13:00:25.073Z,87.96
2022-12-06T13:02:59.952Z,87.93
2022-12-06T13:05:39.542Z,87.19
2022-12-06T13:08:20.470Z,87.11
2022-12-06T13:10:59.151Z,87.39
2022-12-06T13:13:36.758Z,87.29
2022-12-06T13:16:15.823Z,87.60
2022-12-06T13:18:52.384Z,87.44
2022-12-06T13:21:28.111Z,87.72
2022-12-06T13:24:07.370Z,87.63
2022-12-06T13:26:43.740Z,88.05
2022-12-06T13:29:26.324Z,88.05
2022-12-06T13:32:04.982Z,88.39
2022-12-06T13:34:41.591Z,88.42
2022-12-06T13:37:37.363Z,88.35
2022-12-06T13:40:29.117Z,88.26
2022-12-06T13:43:01.926Z,87.87
2022-12-06T13:45:43.894Z,87.65
2022-12-06T13:48:40.259Z,87.66
2022-12-06T13:51:57.792Z,87.92
2022-12-06T13:54:34.079Z,87.97
2022-12-06T13:57:32.641Z,87.90
2022-12-06T14:00:28.467Z,87.97
2022-12-06T14:03:02.893Z,88.24
2022-12-06T14:06:09.010Z,88.44
2022-12-06T14:08:47.071Z,88.35
2022-12-06T14:11:23.802Z,88.32
2022-12-06T14:14:09.060Z,88.37
2022-12-06T14:16:41.430Z,87.56
2022-12-06T14:19:19.152Z,87.58
2022-12-06T14:21:57.415Z,87.76
2022-12-06T14:24:35.992Z,87.60
2022-12-06T14:27:13.710Z,87.95
2022-12-06T14:30:00.000Z,87.72
2022-12-06T14:32:36.809Z,87.75
2022-12-06T14:35:17.042Z,88.11
2022-12-06T14:37:53.611Z,88.28
2022-12-06T14:40:45.944Z,88.48
2022-12-06T14:43:20.657Z,88.71
2022-12-06T14:45:54.133Z,88.52
2022-12-06T14:48:27.408Z,88.44
2022-12-06T14:51:04.533Z,87.94
2022-12-06T14:53:38.185Z,87.73
2022-12-06T14:56:24.871Z,87.70
2022-12-06T14:59:00.903Z,87.91
2022-12-06T15:01:33.302Z,87.74
2022-12-06T15:04:07.554Z,88.29
2022-12-06T15:06:51.770Z,88.27
2022-12-06T15:09:25.243Z,88.44
2022-12-06T15:12:38.631Z,88.63
2022-12-06T15:15:47.523Z,88.73
2022-12-06T15:18:25.947Z,88.56
2022-12-06T15:20:58.424Z,88.88
2022-12-06T15:23:40.893Z,88.63
2022-12-06T15:26:15.252Z,87.74
2022-12-06T15:28:47.862Z,87.86
2022-12-06T15:31:22.875Z,87.78
2022-12-06T15:33:55.865Z,87.78
2022-12-06T15:36:31.048Z,87.88
2022-12-06T15:39:03.199Z,88.02
2022-12-06T15:41:35.380Z,87.88
2022-12-06T15:44:11.975Z,88.25
2022-12-06T15:46:44.983Z,88.34
2022-12-06T15:49:19.135Z,88.53
2022-12-06T15:51:51.713Z,88.63
2022-12-06T15:54:25.743Z,88.60
2022-12-06T15:56:57.889Z,88.18
2022-12-06T15:59:30.027Z,87.95
2022-12-06T16:02:02.580Z,87.99
2022-12-06T16:04:35.157Z,88.05
2022-12-06T16:07:07.459Z,88.19
2022-12-06T16:09:39.962Z,88.01
2022-12-06T16:12:13.587Z,87.94
2022-12-06T16:14:45.835Z,88.23
2022-12-06T16:17:17.997Z,88.41
2022-12-06T16:20:19.350Z,88.61
2022-12-06T16:23:09.130Z,88.53
2022-12-06T16:25:41.248Z,88.34
2022-12-06T16:28:13.898Z,88.47
2022-12-06T16:30:46.146Z,88.22
2022-12-06T16:33:20.356Z,87.90
2022-12-06T16:35:55.833Z,87.86
2022-12-06T16:38:28.065Z,87.98
2022-12-06T16:41:07.466Z,87.85
2022-12-06T16:43:39.584Z,87.89
2022-12-06T16:46:30.821Z,88.20
2022-12-06T16:49:36.697Z,88.28
2022-12-06T16:51:57.000Z,88.47
2022-12-06T16:54:29.163Z,88.58
2022-12-06T16:57:01.246Z,88.36
2022-12-06T16:59:33.323Z,88.58
2022-12-06T17:02:10.058Z,88.60
2022-12-06T17:04:45.363Z,88.44
2022-12-06T17:07:17.489Z,87.83
2022-12-06T17:09:50.033Z,87.78
2022-12-06T17:12:22.461Z,87.64
2022-12-06T17:14:54.805Z,87.86
2022-12-06T17:17:29.387Z,87.92
2022-12-06T17:20:01.497Z,88.12
2022-12-06T17:22:34.971Z,88.52
2022-12-06T17:25:09.999Z,88.39
2022-12-06T17:27:40.969Z,88.44
2022-12-06T17:30:17.980Z,88.27
2022-12-06T17:32:50.224Z,88.57
2022-12-06T17:35:22.365Z,88.54
2022-12-06T17:37:56.017Z,88.48
2022-12-06T17:40:28.164Z,87.90
2022-12-06T17:43:00.433Z,87.60
2022-12-06T17:45:32.528Z,87.70
2022-12-06T17:48:04.872Z,88.07
2022-12-06T17:50:37.370Z,88.06
2022-12-06T17:53:10.336Z,88.01
2022-12-06T17:55:42.578Z,88.02
2022-12-06T17:58:14.748Z,88.46
2022-12-06T18:00:46.922Z,88.17
2022-12-06T18:03:19.127Z,88.26
2022-12-06T18:05:51.302Z,88.38
2022-12-06T18:08:23.570Z,88.36
2022-12-06T18:11:00.760Z,88.63
2022-12-06T18:13:33.361Z,88.18
2022-12-06T18:16:16.046Z,87.73
2022-12-06T18:18:50.037Z,87.80
2022-12-06T18:21:22.334Z,87.77
2022-12-06T18:24:20.371Z,87.71
2022-12-06T18:26:47.584Z,87.62
2022-12-06T18:29:21.394Z,87.92
2022-12-06T18:31:53.954Z,88.10
2022-12-06T18:34:26.292Z,88.16
2022-12-06T18:36:58.409Z,88.42
2022-12-06T18:39:30.577Z,88.39
2022-12-06T18:42:02.749Z,88.46
2022-12-06T18:44:34.914Z,88.23
2022-12-06T18:47:07.109Z,88.40
2022-12-06T18:49:39.223Z,87.75
2022-12-06T18:52:12.755Z,87.59
2022-12-06T18:54:45.326Z,87.90
2022-12-06T18:57:17.470Z,87.93
2022-12-06T18:59:50.379Z,87.88
2022-12-06T19:02:22.567Z,87.96
2022-12-06T19:04:55.229Z,87.92
2022-12-06T19:07:27.475Z,88.21
2022-12-06T19:09:59.792Z,88.21
2022-12-06T19:12:32.149Z,88.42
2022-12-06T19:15:04.438Z,88.35
2022-12-06T19:17:36.533Z,88.11
2022-12-06T19:20:11.222Z,88.27
2022-12-06T19:22:43.480Z,88.10
2022-12-06T19:25:15.645Z,87.39
2022-12-06T19:27:48.351Z,87.62
2022-12-06T19:30:20.949Z,87.62
2022-12-06T19:32:53.088Z,87.73
2022-12-06T19:35:25.345Z,87.59
2022-12-06T19:37:57.922Z,87.67
2022-12-06T19:40:30.038Z,87.53
2022-12-06T19:43:31.931Z,87.88
2022-12-06T19:46:12.703Z,88.08
2022-12-06T19:48:45.202Z,88.10
2022-12-06T19:51:17.914Z,88.21
2022-12-06T19:53:50.335Z,88.20
2022-12-06T19:56:22.703Z,88.24
2022-12-06T19:58:55.872Z,87.99
2022-12-06T20:01:30.240Z,87.53
2022-12-06T20:04:02.594Z,87.64
2022-12-06T20:06:35.250Z,87.49
2022-12-06T20:09:07.972Z,87.34
2022-12-06T20:11:59.802Z,87.37
2022-12-06T20:14:35.358Z,87.67
2022-12-06T20:17:10.102Z,87.82
2022-12-06T20:19:46.272Z,87.92
2022-12-06T20:22:22.282Z,88.02
2022-12-06T20:24:54.416Z,88.01
2022-12-06T20:27:40.464Z,88.11
2022-12-06T20:30:15.498Z,88.17
2022-12-06T20:32:47.868Z,87.38
2022-12-06T20:35:20.139Z,87.48
2022-12-06T20:37:54.177Z,87.34
2022-12-06T20:40:31.240Z,87.31
2022-12-06T20:43:03.891Z,87.42
2022-12-06T20:45:36.724Z,87.51
2022-12-06T20:48:09.634Z,87.87
2022-12-06T20:50:42.724Z,87.70
2022-12-06T20:53:15.079Z,88.03
2022-12-06T20:55:47.284Z,88.06
2022-12-06T20:58:19.459Z,88.20
2022-12-06T21:00:51.733Z,88.23
2022-12-06T21:03:23.977Z,87.83
2022-12-06T21:06:01.561Z,87.43
2022-12-06T21:08:34.172Z,87.46
2022-12-06T21:11:23.655Z,87.30
2022-12-06T21:13:57.822Z,87.21
2022-12-06T21:16:32.202Z,87.42
2022-12-06T21:19:06.473Z,87.52
2022-12-06T21:21:42.104Z,87.87
2022-12-06T21:24:16.069Z,88.07
2022-12-06T21:26:48.517Z,88.01
2022-12-06T21:29:29.735Z,88.06
2022-12-06T21:32:03.881Z,87.97
2022-12-06T21:34:39.115Z,87.87
2022-12-06T21:37:13.722Z,87.75
2022-12-06T21:39:47.440Z,87.25
2022-12-06T21:42:21.281Z,87.04
2022-12-06T21:44:53.500Z,87.17
2022-12-06T21:47:25.798Z,87.11
2022-12-06T21:49:58.231Z,87.16
2022-12-06T21:52:30.649Z,87.37
2022-12-06T21:55:02.968Z,87.82
2022-12-06T21:57:37.544Z,87.69
2022-12-06T22:00:12.039Z,87.72
2022-12-06T22:02:51.378Z,87.88
2022-12-06T22:05:23.724Z,87.85
2022-12-06T22:07:55.856Z,87.49
2022-12-06T22:10:28.265Z,87.83
2022-12-06T22:13:00.710Z,87.00
2022-12-06T22:15:33.257Z,87.00
2022-12-06T22:18:05.870Z,86.85
2022-12-06T22:20:38.042Z,87.18
2022-12-06T22:23:10.129Z,87.10
2022-12-06T22:25:42.890Z,87.12
2022-12-06T22:28:15.180Z,87.41
2022-12-06T22:30:47.353Z,87.30
2022-12-06T22:33:20.595Z,87.56
2022-12-06T22:35:52.714Z,87.81
2022-12-06T22:38:24.906Z,87.73
2022-12-06T22:40:59.634Z,87.73
2022-12-06T22:43:31.878Z,87.38
2022-12-06T22:46:08.430Z,86.88
2022-12-06T22:48:41.694Z,86.85
2022-12-06T22:51:16.594Z,87.04
2022-12-06T22:53:48.359Z,86.78
2022-12-06T22:56:21.226Z,86.60
2022-12-06T22:58:54.337Z,87.05
2022-12-06T23:01:29.472Z,86.89
2022-12-06T23:04:03.210Z,87.17
2022-12-06T23:06:36.396Z,87.50
2022-12-06T23:09:09.182Z,87.13
2022-12-06T23:11:41.549Z,87.34
2022-12-06T23:14:14.002Z,87.29
2022-12-06T23:16:46.257Z,87.14
2022-12-06T23:19:18.442Z,87.34
2022-12-06T23:21:50.685Z,87.29
2022-12-06T23:24:22.794Z,86.66
2022-12-06T23:26:58.190Z,86.48
2022-12-06T23:29:30.672Z,86.51
2022-12-06T23:32:05.727Z,86.34
2022-12-06T23:34:38.635Z,86.28
2022-12-06T23:37:10.760Z,86.21
2022-12-06T23:39:42.799Z,86.61
2022-12-06T23:42:14.951Z,86.49
2022-12-06T23:44:46.981Z,86.65
2022-12-06T23:47:19.234Z,86.74
2022-12-06T23:49:51.292Z,86.72
2022-12-06T23:52:23.409Z,86.50
2022-12-06T23:54:55.526Z,86.67
2022-12-06T23:57:27.721Z,86.35
